Time;durP1;ratioP1;P1;durP2;ratioP2;P2;SDS_P1;SDS_P2;PMS_P1;PMS_P2;Temp;Humidity;BMP_temperature;BMP_pressure;BME280_temperature;BME280_humidity;BME280_pressure;Samples;Min_cycle;Max_cycle;Signal;HPM_P1;HPM_P2
2021/08/16 00:02:26;;;;;;;9.45;7.75;;;13.90;99.90;;;;;;5075612;28;20151;-88
2021/08/16 00:04:53;;;;;;;9.93;7.13;;;13.90;99.90;;;;;;5075611;28;20048;-88
2021/08/16 00:07:20;;;;;;;9.98;7.05;;;14.00;99.90;;;;;;5075702;28;20139;-88
2021/08/16 00:09:47;;;;;;;8.18;7.03;;;14.10;99.90;;;;;;5076019;28;20548;-87
2021/08/16 00:12:14;;;;;;;7.28;6.57;;;14.20;99.90;;;;;;5075823;28;20138;-87
2021/08/16 00:14:41;;;;;;;8.30;7.00;;;14.20;99.90;;;;;;5075833;28;20408;-88
2021/08/16 00:17:08;;;;;;;11.15;6.50;;;14.20;99.90;;;;;;5076249;28;20109;-88
2021/08/16 00:19:35;;;;;;;8.95;6.32;;;14.20;99.90;;;;;;5084581;28;20074;-88
2021/08/16 00:22:02;;;;;;;8.48;6.72;;;14.30;99.90;;;;;;5086592;28;20147;-88
2021/08/16 00:24:29;;;;;;;7.68;6.90;;;14.30;99.90;;;;;;5094280;28;20131;-88
2021/08/16 00:26:56;;;;;;;9.73;6.90;;;14.30;99.90;;;;;;5075217;28;20131;-88
2021/08/16 00:29:22;;;;;;;10.05;7.85;;;14.20;99.90;;;;;;5093790;28;20131;-88
2021/08/16 00:31:49;;;;;;;9.63;7.20;;;14.20;99.90;;;;;;5075686;28;20047;-88
2021/08/16 00:34:16;;;;;;;9.02;6.03;;;14.20;99.90;;;;;;5093221;28;20411;-88
2021/08/16 00:36:43;;;;;;;6.55;5.95;;;14.30;99.90;;;;;;5075319;28;20506;-88
2021/08/16 00:39:10;;;;;;;7.18;6.40;;;14.30;99.90;;;;;;5075714;28;20101;-88
2021/08/16 00:41:38;;;;;;;8.32;6.30;;;14.40;99.90;;;;;;5075658;28;20044;-88
2021/08/16 00:44:08;;;;;;;6.10;5.53;;;14.50;99.90;;;;;;5093067;28;20102;-88
2021/08/16 00:46:35;;;;;;;7.88;6.15;;;14.60;99.90;;;;;;5075178;28;20614;-88
2021/08/16 00:49:02;;;;;;;6.43;5.13;;;14.50;99.90;;;;;;5092965;28;20066;-87
2021/08/16 00:51:31;;;;;;;7.70;5.55;;;14.50;99.90;;;;;;5093130;28;20130;-87
2021/08/16 00:54:00;;;;;;;8.73;5.50;;;14.50;99.90;;;;;;5075486;28;20048;-86
2021/08/16 00:56:28;;;;;;;7.93;5.85;;;14.60;99.90;;;;;;5077121;28;20062;-87
2021/08/16 00:59:00;;;;;;;6.65;5.20;;;14.60;99.90;;;;;;5079025;28;20052;-88
2021/08/16 01:01:27;;;;;;;6.43;5.38;;;14.70;99.90;;;;;;5078922;28;20422;-88
2021/08/16 01:03:55;;;;;;;6.45;5.70;;;14.60;99.90;;;;;;5078785;28;20048;-87
2021/08/16 01:06:22;;;;;;;6.72;5.43;;;14.50;99.90;;;;;;5096406;28;20534;-88
2021/08/16 01:08:49;;;;;;;5.47;5.03;;;14.60;99.90;;;;;;5096737;28;20502;-87
2021/08/16 01:11:17;;;;;;;5.85;5.25;;;14.60;99.90;;;;;;5096641;28;20047;-87
2021/08/16 01:13:45;;;;;;;7.75;5.10;;;14.70;99.90;;;;;;5078770;28;20119;-88
2021/08/16 01:16:14;;;;;;;8.57;5.05;;;14.70;99.90;;;;;;5078439;28;20054;-87
2021/08/16 01:18:41;;;;;;;6.78;6.07;;;14.60;99.90;;;;;;5078580;28;20051;-87
2021/08/16 01:21:10;;;;;;;6.57;5.97;;;14.50;99.90;;;;;;5078553;28;20489;-87
2021/08/16 01:23:38;;;;;;;7.45;6.25;;;14.40;99.90;;;;;;5078744;28;20131;-88
2021/08/16 01:26:05;;;;;;;8.07;5.80;;;14.40;99.90;;;;;;5078587;28;20056;-88
2021/08/16 01:28:32;;;;;;;12.48;6.43;;;14.30;99.90;;;;;;5078343;28;20510;-87
2021/08/16 01:31:02;;;;;;;8.93;6.40;;;14.30;99.90;;;;;;5078410;28;20507;-87
2021/08/16 01:33:29;;;;;;;8.43;6.22;;;14.30;99.90;;;;;;5078607;28;20514;-88
2021/08/16 01:35:56;;;;;;;6.60;5.85;;;14.20;99.90;;;;;;5078348;28;20131;-88
2021/08/16 01:38:29;;;;;;;6.57;5.75;;;14.10;99.90;;;;;;5090026;28;20115;-88
2021/08/16 01:40:57;;;;;;;5.93;5.30;;;14.10;99.90;;;;;;5085975;28;20135;-88
2021/08/16 01:43:24;;;;;;;6.40;5.75;;;14.10;99.90;;;;;;5078138;28;20052;-87
2021/08/16 01:45:52;;;;;;;6.53;5.93;;;14.00;99.90;;;;;;5078012;28;20191;-88
2021/08/16 01:48:19;;;;;;;7.30;5.70;;;14.00;99.90;;;;;;5078272;28;20047;-87
2021/08/16 01:50:47;;;;;;;7.80;6.03;;;13.90;99.90;;;;;;5095902;28;20044;-88
2021/08/16 01:53:14;;;;;;;6.75;6.07;;;13.80;99.90;;;;;;5078044;28;20048;-88
2021/08/16 01:55:41;;;;;;;9.80;5.85;;;13.80;99.90;;;;;;5077969;28;20055;-88
2021/08/16 01:58:09;;;;;;;5.97;5.10;;;13.70;99.90;;;;;;5095814;28;20429;-87
2021/08/16 02:00:37;;;;;;;6.60;5.53;;;13.80;99.90;;;;;;5077625;28;20134;-87
2021/08/16 02:03:04;;;;;;;6.70;6.05;;;13.90;99.90;;;;;;5077680;28;20044;-88
2021/08/16 02:05:31;;;;;;;6.30;5.70;;;13.90;99.90;;;;;;5077787;28;20044;-88
2021/08/16 02:08:02;;;;;;;5.95;5.05;;;13.90;99.90;;;;;;5076745;28;20071;-88
2021/08/16 02:10:29;;;;;;;6.32;5.18;;;13.90;99.90;;;;;;5077727;28;20143;-88
2021/08/16 02:12:56;;;;;;;5.97;5.40;;;13.90;99.90;;;;;;5077593;28;20131;-87
2021/08/16 02:15:23;;;;;;;5.82;5.00;;;13.90;99.90;;;;;;5077541;28;20130;-88
2021/08/16 02:17:50;;;;;;;7.97;5.63;;;13.90;99.90;;;;;;5077485;28;20051;-87
2021/08/16 02:20:17;;;;;;;6.60;5.43;;;13.90;99.90;;;;;;5077273;28;20466;-87
2021/08/16 02:22:44;;;;;;;6.85;6.15;;;13.90;99.90;;;;;;5077407;28;20047;-87
2021/08/16 02:25:11;;;;;;;11.32;6.00;;;13.90;99.90;;;;;;5077300;28;20492;-88
2021/08/16 02:27:48;;;;;;;9.50;6.35;;;13.90;99.90;;;;;;5077457;28;20532;-87
2021/08/16 02:30:18;;;;;;;7.13;6.43;;;13.90;99.90;;;;;;5077303;28;20142;-87
2021/08/16 02:32:45;;;;;;;9.45;6.25;;;13.90;99.90;;;;;;5077195;28;20056;-87
2021/08/16 02:35:12;;;;;;;8.88;6.35;;;13.90;99.90;;;;;;5077212;28;20559;-88
2021/08/16 02:37:40;;;;;;;8.10;6.30;;;13.90;99.90;;;;;;5077098;28;20058;-88
2021/08/16 02:40:09;;;;;;;6.90;6.20;;;13.80;99.90;;;;;;5077157;28;20052;-88
2021/08/16 02:42:37;;;;;;;6.55;5.68;;;13.90;99.90;;;;;;5077021;28;20082;-87
2021/08/16 02:45:09;;;;;;;7.10;5.55;;;13.90;99.90;;;;;;5077529;28;20496;-87
2021/08/16 02:47:37;;;;;;;6.22;5.20;;;13.90;99.90;;;;;;5077113;28;20563;-88
2021/08/16 02:50:05;;;;;;;7.20;5.90;;;14.00;99.90;;;;;;5076967;28;20063;-87
2021/08/16 02:52:32;;;;;;;5.40;4.90;;;14.10;99.90;;;;;;5076894;28;20048;-88
2021/08/16 02:54:59;;;;;;;6.30;5.13;;;14.10;99.90;;;;;;5077107;28;20044;-88
2021/08/16 02:57:26;;;;;;;6.22;4.82;;;14.10;99.90;;;;;;5077193;28;20044;-87
2021/08/16 02:59:53;;;;;;;6.50;5.20;;;14.10;99.90;;;;;;5076839;28;20147;-88
2021/08/16 03:02:20;;;;;;;6.60;5.03;;;14.10;99.90;;;;;;5076684;28;20083;-88
2021/08/16 03:04:47;;;;;;;6.45;4.90;;;14.10;99.90;;;;;;5076734;28;20407;-87
2021/08/16 03:07:14;;;;;;;6.60;5.25;;;13.90;99.90;;;;;;5076671;28;20040;-87
2021/08/16 03:09:41;;;;;;;5.20;4.68;;;13.80;99.90;;;;;;5076734;28;20135;-87
2021/08/16 03:12:08;;;;;;;5.72;5.25;;;13.80;99.90;;;;;;5076617;28;20453;-88
2021/08/16 03:14:35;;;;;;;7.90;5.40;;;13.80;99.90;;;;;;5076626;28;20556;-88
2021/08/16 03:17:03;;;;;;;8.57;5.68;;;13.60;99.90;;;;;;5076576;28;20055;-88
2021/08/16 03:19:30;;;;;;;9.63;5.65;;;13.50;99.90;;;;;;5076448;28;20040;-87
2021/08/16 03:21:56;;;;;;;6.45;5.55;;;13.40;99.90;;;;;;5076582;28;20062;-88
2021/08/16 03:24:23;;;;;;;6.30;5.70;;;13.30;99.90;;;;;;5076426;28;20048;-87
2021/08/16 03:26:50;;;;;;;6.70;5.47;;;13.30;99.90;;;;;;5076526;28;20047;-88
2021/08/16 03:29:17;;;;;;;5.80;5.22;;;13.30;99.90;;;;;;5076841;28;20122;-87
2021/08/16 03:31:44;;;;;;;6.78;5.82;;;13.30;99.90;;;;;;5076731;28;20143;-88
2021/08/16 03:34:11;;;;;;;8.35;6.18;;;13.10;99.90;;;;;;5076402;28;20052;-87
2021/08/16 03:36:38;;;;;;;6.32;5.63;;;13.00;99.90;;;;;;5076269;28;20403;-88
2021/08/16 03:39:05;;;;;;;8.38;6.95;;;13.00;99.90;;;;;;5055987;28;20140;-87
2021/08/16 03:41:31;;;;;;;7.32;6.60;;;13.10;99.90;;;;;;5055752;28;20507;-88
2021/08/16 03:43:58;;;;;;;8.57;5.72;;;13.20;99.90;;;;;;5056236;28;20052;-88
2021/08/16 03:46:25;;;;;;;9.75;6.07;;;13.20;99.90;;;;;;5056289;28;20084;-88
2021/08/16 03:48:52;;;;;;;7.60;6.03;;;13.30;99.90;;;;;;5056032;28;20052;-88
2021/08/16 03:51:18;;;;;;;6.95;5.63;;;13.40;99.90;;;;;;5056116;28;20139;-88
2021/08/16 03:53:45;;;;;;;8.55;6.25;;;13.40;99.90;;;;;;5055152;28;20135;-87
2021/08/16 03:56:12;;;;;;;6.40;5.70;;;13.40;99.90;;;;;;5072803;28;20135;-88
2021/08/16 03:58:41;;;;;;;7.18;6.47;;;13.40;99.90;;;;;;5055547;28;20127;-88
2021/08/16 04:01:11;;;;;;;8.20;6.10;;;13.30;99.90;;;;;;5072935;28;20412;-89
2021/08/16 04:03:41;;;;;;;8.68;5.93;;;13.30;99.90;;;;;;5055426;28;20045;-88
2021/08/16 04:06:08;;;;;;;6.50;5.75;;;13.30;99.90;;;;;;5055377;28;20067;-88
2021/08/16 04:08:39;;;;;;;7.35;5.88;;;13.20;99.90;;;;;;5055365;28;20484;-88
2021/08/16 04:11:07;;;;;;;7.13;6.40;;;13.10;99.90;;;;;;5055398;28;20094;-88
2021/08/16 04:13:34;;;;;;;7.30;6.60;;;13.30;99.90;;;;;;5055440;28;20079;-88
2021/08/16 04:16:01;;;;;;;7.13;6.00;;;13.40;99.90;;;;;;5073383;28;20119;-88
2021/08/16 04:18:28;;;;;;;6.88;6.00;;;13.50;99.90;;;;;;5055656;28;20103;-87
2021/08/16 04:20:56;;;;;;;7.38;6.22;;;13.50;99.90;;;;;;5072523;28;20058;-88
2021/08/16 04:23:22;;;;;;;7.78;5.95;;;13.50;99.90;;;;;;5072452;28;20049;-88
2021/08/16 04:25:49;;;;;;;6.45;5.85;;;13.50;99.90;;;;;;5055547;28;20132;-88
2021/08/16 04:28:16;;;;;;;7.00;5.55;;;13.50;99.90;;;;;;5055043;28;20044;-88
2021/08/16 04:30:45;;;;;;;10.13;6.28;;;13.60;99.90;;;;;;5073463;28;20512;-88
2021/08/16 04:33:12;;;;;;;8.20;5.93;;;13.60;99.90;;;;;;5058916;28;20045;-88
2021/08/16 04:35:39;;;;;;;6.28;5.38;;;13.60;99.90;;;;;;5059016;28;20075;-87
2021/08/16 04:38:06;;;;;;;13.50;6.32;;;13.50;99.90;;;;;;5070977;28;20408;-88
2021/08/16 04:40:33;;;;;;;9.18;5.75;;;13.50;99.90;;;;;;5078892;28;20048;-87
2021/08/16 04:42:59;;;;;;;6.95;6.00;;;13.60;99.90;;;;;;5078798;28;20054;-88
2021/08/16 04:45:27;;;;;;;7.13;6.25;;;13.60;99.90;;;;;;5078455;28;20131;-88
2021/08/16 04:47:54;;;;;;;9.70;5.95;;;13.70;99.90;;;;;;5078686;28;20100;-88
2021/08/16 04:50:21;;;;;;;10.52;6.80;;;13.70;99.90;;;;;;5096548;28;20086;-88
2021/08/16 04:52:48;;;;;;;7.25;5.90;;;13.70;99.90;;;;;;5096493;28;20052;-88
2021/08/16 04:55:15;;;;;;;6.95;6.13;;;13.80;99.90;;;;;;5078741;28;20052;-88
2021/08/16 04:57:42;;;;;;;6.70;6.10;;;13.80;99.90;;;;;;5096484;28;20135;-88
2021/08/16 05:00:11;;;;;;;8.30;6.30;;;13.90;99.90;;;;;;5078123;28;20044;-88
2021/08/16 05:02:38;;;;;;;6.63;5.78;;;14.00;99.90;;;;;;5078714;28;20048;-88
2021/08/16 05:05:09;;;;;;;8.02;6.15;;;14.10;99.90;;;;;;5078374;28;20047;-87
2021/08/16 05:07:36;;;;;;;13.15;6.47;;;14.20;99.90;;;;;;5096551;28;20147;-87
2021/08/16 05:10:07;;;;;;;11.52;6.03;;;14.30;99.90;;;;;;5078258;28;20492;-87
2021/08/16 05:12:37;;;;;;;8.77;5.75;;;14.40;99.90;;;;;;5078559;28;20086;-87
2021/08/16 05:15:05;;;;;;;10.10;5.70;;;14.60;99.90;;;;;;5078475;28;20044;-88
2021/08/16 05:17:32;;;;;;;7.35;5.93;;;14.60;99.90;;;;;;5096353;28;20052;-88
2021/08/16 05:20:01;;;;;;;7.78;5.95;;;14.80;99.90;;;;;;5078619;28;20539;-88
2021/08/16 05:22:28;;;;;;;9.68;6.40;;;15.00;99.90;;;;;;5078211;28;20472;-88
2021/08/16 05:24:54;;;;;;;13.15;6.40;;;15.20;99.90;;;;;;5077832;28;20098;-87
2021/08/16 05:27:21;;;;;;;17.30;6.00;;;15.40;99.90;;;;;;5078079;28;20058;-87
2021/08/16 05:29:48;;;;;;;13.65;5.72;;;15.80;99.90;;;;;;5078046;28;20040;-87
2021/08/16 05:32:16;;;;;;;10.60;5.07;;;16.50;99.90;;;;;;5077962;28;20040;-88
2021/08/16 05:34:44;;;;;;;12.85;5.43;;;17.40;99.90;;;;;;5078248;28;20052;-88
2021/08/16 05:37:11;;;;;;;11.88;5.07;;;18.30;99.90;;;;;;5078138;28;20056;-87
2021/08/16 05:39:37;;;;;;;13.40;4.72;;;18.90;99.90;;;;;;5077900;28;20044;-88
2021/08/16 05:42:04;;;;;;;10.35;5.70;;;19.70;99.90;;;;;;5076490;28;20051;-88
2021/08/16 05:44:32;;;;;;;10.90;4.45;;;20.60;99.90;;;;;;5077776;28;20048;-88
2021/08/16 05:47:01;;;;;;;11.63;4.75;;;21.40;99.90;;;;;;5077729;28;20055;-87
2021/08/16 05:49:28;;;;;;;10.38;4.65;;;21.90;99.90;;;;;;5077811;28;20066;-88
2021/08/16 05:51:56;;;;;;;10.45;5.13;;;22.20;99.90;;;;;;5077664;28;20416;-87
2021/08/16 05:54:22;;;;;;;18.88;5.20;;;21.50;99.90;;;;;;5077602;28;20052;-87
2021/08/16 05:56:49;;;;;;;15.65;5.47;;;21.00;99.90;;;;;;5077986;28;20071;-87
2021/08/16 05:59:16;;;;;;;10.55;5.45;;;20.80;99.90;;;;;;5077528;28;20054;-87
2021/08/16 06:01:44;;;;;;;15.85;5.32;;;20.60;99.90;;;;;;5077412;28;20063;-88
2021/08/16 06:04:11;;;;;;;16.45;5.38;;;20.50;99.90;;;;;;5077371;28;20064;-88
2021/08/16 06:06:37;;;;;;;18.25;5.68;;;20.90;99.90;;;;;;5077112;28;20559;-88
2021/08/16 06:09:05;;;;;;;26.05;5.68;;;21.30;99.90;;;;;;5094972;28;20134;-87
2021/08/16 06:11:32;;;;;;;24.73;5.70;;;22.40;99.90;;;;;;5077299;28;20143;-87
2021/08/16 06:13:59;;;;;;;23.17;5.75;;;23.90;99.90;;;;;;5077092;28;20480;-88
2021/08/16 06:16:26;;;;;;;13.45;4.80;;;24.70;99.90;;;;;;5076997;28;20052;-88
2021/08/16 06:18:53;;;;;;;9.35;3.88;;;25.80;99.90;;;;;;5077596;28;20132;-88
2021/08/16 06:21:19;;;;;;;3.88;3.45;;;25.80;99.90;;;;;;5076977;28;20134;-88
2021/08/16 06:23:47;;;;;;;5.82;3.83;;;26.40;99.90;;;;;;5077057;28;20044;-88
2021/08/16 06:26:14;;;;;;;10.25;3.45;;;26.20;99.90;;;;;;5076690;28;20062;-88
2021/08/16 06:28:41;;;;;;;3.63;3.20;;;26.40;99.90;;;;;;5076874;28;20046;-87
2021/08/16 06:31:08;;;;;;;7.28;3.55;;;27.00;99.90;;;;;;5076877;28;20142;-88
2021/08/16 06:33:40;;;;;;;5.88;3.75;;;27.50;99.90;;;;;;5077118;28;20052;-88
2021/08/16 06:36:08;;;;;;;7.85;3.50;;;26.90;99.90;;;;;;5076681;28;20097;-87
2021/08/16 06:38:35;;;;;;;10.02;3.38;;;27.40;99.90;;;;;;5076538;28;20135;-88
2021/08/16 06:41:03;;;;;;;5.32;3.40;;;26.70;99.90;;;;;;5076551;28;20044;-89
2021/08/16 06:43:32;;;;;;;5.45;3.05;;;27.00;99.90;;;;;;5076914;28;20052;-88
2021/08/16 06:45:59;;;;;;;5.43;3.42;;;26.70;99.90;;;;;;5076376;28;20076;-88
2021/08/16 06:48:26;;;;;;;8.70;3.25;;;27.20;99.90;;;;;;5094197;28;20048;-88
2021/08/16 06:50:53;;;;;;;8.80;2.90;;;27.00;99.90;;;;;;5076459;28;20056;-89
2021/08/16 06:53:20;;;;;;;5.10;3.50;;;27.60;98.00;;;;;;5076852;28;20051;-88
2021/08/16 06:55:48;;;;;;;6.97;3.58;;;27.20;96.90;;;;;;5076305;28;20107;-86
2021/08/16 06:58:14;;;;;;;6.90;3.70;;;26.90;96.40;;;;;;5075994;28;20040;-86
2021/08/16 07:00:43;;;;;;;10.93;3.72;;;26.90;94.80;;;;;;5076329;28;20510;-87
2021/08/16 07:03:10;;;;;;;6.78;2.53;;;26.70;94.20;;;;;;5076131;28;20039;-87
2021/08/16 07:05:45;;;;;;;6.25;3.10;;;27.00;95.20;;;;;;5076307;28;20133;-91
2021/08/16 07:08:13;;;;;;;5.50;2.90;;;27.30;92.00;;;;;;5076299;28;20097;-93
2021/08/16 07:10:41;;;;;;;4.85;3.30;;;27.00;91.50;;;;;;5076242;28;20052;-93
2021/08/16 07:13:11;;;;;;;4.47;3.75;;;26.60;91.70;;;;;;5076229;28;20143;-89
2021/08/16 07:15:38;;;;;;;3.58;3.28;;;26.30;92.10;;;;;;5075880;28;20048;-88
2021/08/16 07:18:05;;;;;;;5.25;2.67;;;27.00;91.70;;;;;;5076155;28;20047;-87
2021/08/16 07:20:32;;;;;;;4.80;4.28;;;26.90;91.40;;;;;;5076027;28;20488;-91
2021/08/16 07:23:00;;;;;;;6.07;3.22;;;26.60;90.70;;;;;;5076509;28;20083;-88
2021/08/16 07:25:27;;;;;;;7.38;3.83;;;26.40;90.90;;;;;;5076159;28;20104;-88
2021/08/16 07:27:53;;;;;;;4.25;2.83;;;26.40;92.20;;;;;;5076016;28;20408;-88
2021/08/16 07:30:21;;;;;;;4.82;3.20;;;27.00;91.30;;;;;;5076553;28;20048;-87
2021/08/16 07:32:48;;;;;;;17.23;10.73;;;26.90;89.00;;;;;;5076020;28;20047;-88
2021/08/16 07:35:15;;;;;;;4.93;3.35;;;26.90;88.80;;;;;;5076575;28;20139;-88
2021/08/16 07:37:41;;;;;;;6.30;3.63;;;27.80;88.50;;;;;;5077834;28;20084;-89
2021/08/16 07:40:09;;;;;;;6.07;4.22;;;28.70;83.00;;;;;;5096167;28;20454;-89
2021/08/16 07:42:37;;;;;;;7.22;4.35;;;29.10;80.70;;;;;;5093126;28;20146;-87
2021/08/16 07:45:05;;;;;;;5.05;3.53;;;29.20;80.00;;;;;;5075683;28;20589;-89
2021/08/16 07:47:32;;;;;;;5.15;3.78;;;29.60;77.10;;;;;;5076142;28;20044;-92
2021/08/16 07:49:59;;;;;;;4.47;3.40;;;29.40;75.20;;;;;;5075853;28;20493;-88
2021/08/16 07:52:26;;;;;;;3.55;2.95;;;29.80;75.50;;;;;;5075674;28;20477;-88
2021/08/16 07:54:54;;;;;;;5.57;3.80;;;30.90;73.70;;;;;;5075805;28;20048;-87
2021/08/16 07:57:21;;;;;;;6.18;3.70;;;32.40;70.00;;;;;;5075596;28;20091;-91
2021/08/16 07:59:48;;;;;;;4.70;3.65;;;32.00;67.30;;;;;;5093818;28;20128;-90
2021/08/16 08:02:15;;;;;;;4.55;3.45;;;31.70;66.80;;;;;;5075734;28;20048;-88
2021/08/16 08:04:42;;;;;;;13.20;3.88;;;30.90;68.10;;;;;;5093245;28;20480;-88
2021/08/16 08:07:09;;;;;;;4.47;3.67;;;30.20;66.20;;;;;;5078881;28;20087;-89
2021/08/16 08:09:36;;;;;;;3.72;2.95;;;30.30;66.70;;;;;;5097537;28;20048;-87
2021/08/16 08:12:03;;;;;;;5.55;3.20;;;30.30;65.80;;;;;;5081096;28;20559;-88
2021/08/16 08:14:30;;;;;;;12.20;3.70;;;30.50;65.00;;;;;;5098795;28;20139;-92
2021/08/16 08:16:58;;;;;;;15.45;3.25;;;29.60;64.80;;;;;;5080430;28;20134;-88
2021/08/16 08:19:24;;;;;;;11.32;3.50;;;28.50;66.50;;;;;;5079868;28;20080;-89
2021/08/16 08:21:51;;;;;;;7.15;3.30;;;28.80;66.70;;;;;;5079658;28;20412;-90
2021/08/16 08:24:18;;;;;;;13.20;3.17;;;28.60;67.40;;;;;;5079686;28;20044;-88
2021/08/16 08:26:45;;;;;;;9.85;3.15;;;28.40;68.90;;;;;;5096974;28;20048;-89
2021/08/16 08:29:12;;;;;;;5.05;2.50;;;28.60;68.40;;;;;;5079305;28;20044;-87
2021/08/16 08:31:41;;;;;;;4.15;2.50;;;28.20;69.00;;;;;;5079207;28;20048;-87
2021/08/16 08:34:08;;;;;;;8.10;2.90;;;27.60;69.70;;;;;;5079117;28;20044;-87
2021/08/16 08:36:36;;;;;;;3.92;3.10;;;27.00;72.00;;;;;;5078821;28;20527;-87
2021/08/16 08:39:04;;;;;;;5.32;2.80;;;26.30;73.50;;;;;;5096536;28;20051;-87
2021/08/16 08:41:32;;;;;;;5.22;2.50;;;26.20;75.80;;;;;;5079011;28;20135;-87
2021/08/16 08:44:04;;;;;;;11.10;3.00;;;25.70;75.70;;;;;;5096865;28;20172;-88
2021/08/16 08:46:33;;;;;;;2.75;2.50;;;25.30;76.80;;;;;;5078730;28;20052;-87
2021/08/16 08:49:01;;;;;;;5.53;2.78;;;25.30;79.70;;;;;;5079033;28;20063;-87
2021/08/16 08:51:28;;;;;;;8.27;3.20;;;25.40;78.90;;;;;;5079189;28;20066;-85
2021/08/16 08:53:55;;;;;;;6.95;3.60;;;25.10;80.60;;;;;;5096702;28;20056;-87
2021/08/16 08:56:42;;;;;;;4.45;2.58;;;25.00;80.10;;;;;;5081811;28;20052;-86
2021/08/16 08:59:11;;;;;;;5.00;3.47;;;24.60;82.40;;;;;;5096509;28;20055;-88
2021/08/16 09:01:59;;;;;;;4.07;3.45;;;24.40;83.50;;;;;;5078521;28;20048;-88
2021/08/16 09:04:26;;;;;;;9.00;3.58;;;24.50;83.70;;;;;;5078677;28;20451;-86
2021/08/16 09:06:53;;;;;;;5.57;3.45;;;25.10;84.20;;;;;;5096177;28;20070;-87
2021/08/16 09:09:20;;;;;;;8.48;3.53;;;26.10;81.60;;;;;;5078743;28;20044;-87
2021/08/16 09:11:50;;;;;;;5.90;3.45;;;25.80;80.80;;;;;;5096325;28;20134;-86
2021/08/16 09:14:18;;;;;;;7.03;3.80;;;25.90;82.40;;;;;;5078201;28;20043;-87
2021/08/16 09:16:46;;;;;;;7.53;3.97;;;26.40;81.10;;;;;;5077968;28;20058;-87
2021/08/16 09:19:17;;;;;;;4.90;3.63;;;26.90;80.80;;;;;;5078555;28;20075;-88
2021/08/16 09:21:56;;;;;;;4.57;2.90;;;27.00;80.40;;;;;;5078416;28;20048;-87
2021/08/16 09:24:25;;;;;;;8.73;3.20;;;26.70;77.30;;;;;;5096214;28;20048;-86
2021/08/16 09:26:52;;;;;;;6.45;3.30;;;25.80;79.80;;;;;;5078247;28;20396;-86
2021/08/16 09:29:24;;;;;;;6.85;2.78;;;25.00;81.70;;;;;;5079594;28;20051;-86
2021/08/16 09:32:05;;;;;;;3.25;2.83;;;24.40;84.60;;;;;;5080145;28;20052;-87
2021/08/16 09:34:40;;;;;;;3.40;2.83;;;24.00;84.50;;;;;;5078405;28;20631;-88
2021/08/16 09:37:26;;;;;;;4.70;2.60;;;23.90;85.40;;;;;;5077896;28;20083;-87
2021/08/16 09:40:08;;;;;;;3.50;2.40;;;24.20;87.20;;;;;;5078191;28;20048;-87
2021/08/16 09:42:40;;;;;;;5.32;2.95;;;24.60;84.60;;;;;;5077715;28;20052;-88
2021/08/16 09:45:08;;;;;;;5.03;2.10;;;24.70;83.10;;;;;;5095707;28;20044;-87
2021/08/16 09:47:45;;;;;;;10.10;2.85;;;24.60;79.30;;;;;;5077812;28;20099;-87
2021/08/16 09:50:12;;;;;;;18.77;2.65;;;26.10;77.70;;;;;;5077944;28;20128;-88
2021/08/16 09:52:43;;;;;;;4.95;1.92;;;27.20;74.00;;;;;;5077841;28;20362;-89
2021/08/16 09:55:10;;;;;;;9.95;2.33;;;26.90;71.00;;;;;;5095987;28;20051;-89
2021/08/16 09:57:40;;;;;;;6.88;2.20;;;27.10;68.00;;;;;;5098234;28;20044;-92
2021/08/16 10:00:07;;;;;;;3.60;2.15;;;28.20;68.80;;;;;;5081085;28;20138;-89
2021/08/16 10:02:37;;;;;;;3.85;1.80;;;30.60;63.10;;;;;;5081543;28;20044;-91
2021/08/16 10:05:06;;;;;;;1.95;1.60;;;32.60;59.30;;;;;;5077489;28;20048;-88
2021/08/16 10:07:40;;;;;;;1.95;1.70;;;34.60;55.50;;;;;;5078541;28;20062;-91
2021/08/16 10:10:09;;;;;;;2.13;1.40;;;33.90;54.10;;;;;;5077802;28;20389;-91
2021/08/16 10:12:36;;;;;;;3.60;1.73;;;32.50;54.70;;;;;;5077593;28;20109;-90
2021/08/16 10:15:04;;;;;;;2.63;1.60;;;30.30;57.60;;;;;;5077163;28;20068;-86
2021/08/16 10:17:38;;;;;;;3.17;1.90;;;29.50;59.80;;;;;;5078125;28;20047;-90
2021/08/16 10:20:06;;;;;;;7.43;2.33;;;29.30;59.30;;;;;;5077526;28;20138;-93
2021/08/16 10:22:38;;;;;;;3.88;1.38;;;29.40;59.80;;;;;;5077446;28;20454;-92
2021/08/16 10:25:16;;;;;;;6.88;1.90;;;29.90;58.10;;;;;;5077299;28;20044;-92
2021/08/16 10:27:43;;;;;;;3.45;1.30;;;30.00;56.60;;;;;;5077418;28;20059;-89
2021/08/16 10:30:15;;;;;;;8.23;1.70;;;29.90;56.50;;;;;;5076857;28;20052;-87
2021/08/16 10:32:43;;;;;;;17.47;2.23;;;28.70;57.30;;;;;;5077459;28;20488;-91
2021/08/16 10:35:18;;;;;;;8.07;1.38;;;27.50;59.60;;;;;;5077840;28;20643;-86
2021/08/16 10:37:46;;;;;;;3.83;1.23;;;26.50;62.70;;;;;;5094710;28;20397;-86
2021/08/16 10:40:26;;;;;;;7.75;1.40;;;26.90;62.70;;;;;;5094643;28;20091;-87
2021/08/16 10:42:55;;;;;;;9.07;1.45;;;27.40;60.70;;;;;;5076949;28;20131;-88
2021/08/16 10:45:33;;;;;;;3.53;1.38;;;27.80;60.90;;;;;;5076723;28;20044;-90
2021/08/16 10:48:15;;;;;;;3.45;1.30;;;28.10;61.50;;;;;;5076972;28;20117;-87
2021/08/16 10:50:41;;;;;;;2.08;1.55;;;29.10;60.40;;;;;;5077352;28;20130;-91
2021/08/16 10:53:09;;;;;;;5.32;1.52;;;28.80;60.70;;;;;;5095804;28;20063;-89
2021/08/16 10:55:38;;;;;;;5.85;1.25;;;28.00;61.50;;;;;;5076717;28;20567;-90
2021/08/16 10:58:09;;;;;;;5.68;1.30;;;27.10;61.40;;;;;;5076845;28;20074;-89
2021/08/16 11:00:38;;;;;;;11.60;1.60;;;26.20;65.60;;;;;;5077333;28;20047;-89
2021/08/16 11:03:07;;;;;;;40.67;3.13;;;25.50;66.40;;;;;;5077817;28;20135;-91
2021/08/16 11:05:37;;;;;;;1.30;1.15;;;25.20;66.30;;;;;;5077750;28;20105;-89
2021/08/16 11:08:05;;;;;;;3.45;1.42;;;24.40;69.00;;;;;;5076527;28;20127;-89
2021/08/16 11:10:43;;;;;;;2.10;1.27;;;24.20;71.50;;;;;;5076720;28;20481;-90
2021/08/16 11:13:12;;;;;;;3.10;1.30;;;23.90;72.60;;;;;;5076692;28;20071;-90
2021/08/16 11:15:40;;;;;;;3.55;1.30;;;23.60;74.60;;;;;;5076401;28;20050;-88
2021/08/16 11:18:17;;;;;;;2.22;1.17;;;23.30;75.70;;;;;;5076873;28;20055;-89
2021/08/16 11:20:46;;;;;;;2.55;1.35;;;23.20;76.10;;;;;;5077102;28;20054;-90
2021/08/16 11:23:20;;;;;;;4.50;1.25;;;23.10;77.00;;;;;;5076453;28;20054;-88
2021/08/16 11:25:54;;;;;;;4.07;1.23;;;23.00;77.50;;;;;;5076503;28;20048;-89
2021/08/16 11:28:41;;;;;;;4.38;1.15;;;23.10;77.50;;;;;;5076548;28;20082;-93
2021/08/16 11:31:08;;;;;;;3.60;1.00;;;23.40;76.70;;;;;;5075176;28;20056;-91
2021/08/16 11:33:36;;;;;;;4.88;0.93;;;23.30;75.60;;;;;;5076696;28;20056;-91
2021/08/16 11:36:12;;;;;;;2.28;0.98;;;23.10;75.70;;;;;;5076492;28;20139;-89
2021/08/16 11:38:42;;;;;;;2.15;0.80;;;22.90;77.10;;;;;;5076241;28;20056;-86
2021/08/16 11:41:11;;;;;;;6.55;0.93;;;22.90;76.80;;;;;;5075478;28;20048;-88
2021/08/16 11:44:12;;;;;;;1.45;0.70;;;22.70;78.30;;;;;;5078827;28;20044;-88
2021/08/16 11:46:39;;;;;;;0.80;0.80;;;22.80;78.50;;;;;;5075873;28;20385;-87
2021/08/16 11:49:08;;;;;;;1.48;1.00;;;22.90;78.20;;;;;;5075999;28;20054;-87
2021/08/16 11:51:35;;;;;;;0.90;0.70;;;22.90;78.00;;;;;;5076287;28;20146;-89
2021/08/16 11:54:02;;;;;;;1.48;0.70;;;22.90;79.60;;;;;;5076047;28;20048;-89
2021/08/16 11:56:29;;;;;;;0.55;0.55;;;22.80;78.70;;;;;;5075826;28;20055;-88
2021/08/16 11:58:56;;;;;;;2.40;0.73;;;22.70;79.20;;;;;;5076127;28;20502;-90
2021/08/16 12:01:23;;;;;;;0.88;0.60;;;22.60;78.70;;;;;;5076327;28;20052;-89
2021/08/16 12:03:51;;;;;;;2.30;0.30;;;22.30;79.60;;;;;;5075704;28;20060;-88
2021/08/16 12:06:18;;;;;;;0.40;0.38;;;22.30;80.20;;;;;;5076276;28;20048;-92
2021/08/16 12:08:45;;;;;;;1.38;0.50;;;22.20;80.40;;;;;;5076444;28;20139;-89
2021/08/16 12:11:14;;;;;;;0.50;0.50;;;22.00;80.60;;;;;;5078655;28;20087;-87
2021/08/16 12:13:41;;;;;;;1.58;0.40;;;22.00;80.80;;;;;;5075956;28;20044;-92
2021/08/16 12:16:13;;;;;;;1.38;0.30;;;21.90;81.40;;;;;;5076070;28;20066;-91
2021/08/16 12:18:40;;;;;;;0.60;0.60;;;21.80;81.60;;;;;;5076537;28;20048;-89
2021/08/16 12:21:18;;;;;;;0.93;0.63;;;21.90;81.40;;;;;;5081493;28;20051;-89
2021/08/16 12:23:53;;;;;;;1.35;0.57;;;22.20;80.80;;;;;;5080491;28;20054;-89
2021/08/16 12:26:57;;;;;;;0.60;0.60;;;22.30;80.60;;;;;;5076998;28;20134;-89
2021/08/16 12:29:27;;;;;;;1.90;0.65;;;22.10;79.10;;;;;;5062292;28;20082;-87
2021/08/16 12:31:55;;;;;;;1.13;0.80;;;21.70;81.60;;;;;;5075790;28;20044;-90
2021/08/16 12:34:32;;;;;;;2.70;0.70;;;21.50;81.70;;;;;;5075700;28;20052;-88
2021/08/16 12:36:59;;;;;;;0.80;0.80;;;21.40;82.90;;;;;;5075723;28;20139;-90
2021/08/16 12:39:33;;;;;;;1.40;0.75;;;21.40;84.50;;;;;;5076049;28;20048;-89
2021/08/16 12:42:08;;;;;;;2.08;0.50;;;21.60;84.60;;;;;;5075747;28;20055;-90
2021/08/16 12:44:50;;;;;;;2.90;0.80;;;21.90;84.30;;;;;;5076328;28;20097;-90
2021/08/16 12:47:31;;;;;;;1.52;0.80;;;22.30;83.40;;;;;;5075941;28;20044;-85
2021/08/16 12:49:59;;;;;;;1.48;0.90;;;22.60;82.00;;;;;;5074636;28;20139;-92
2021/08/16 12:52:28;;;;;;;1.80;1.10;;;23.00;81.90;;;;;;5077825;28;20044;-90
2021/08/16 12:54:55;;;;;;;1.50;1.20;;;23.30;80.50;;;;;;5079182;28;20139;-88